Time;durP1;ratioP1;P1;durP2;ratioP2;P2;SDS_P1;SDS_P2;PMS_P1;PMS_P2;Temp;Humidity;BMP_temperature;BMP_pressure;BME280_temperature;BME280_humidity;BME280_pressure;Samples;Min_cycle;Max_cycle;Signal;HPM_P1;HPM_P2
2022/10/18 00:02:34;;;;;;;20.45;8.13;;;;;;;16.26;68.53;100776.34;10384902;28;20132;-66
2022/10/18 00:07:36;;;;;;;28.40;8.27;;;;;;;16.27;68.57;100785.94;10386182;28;20084;-67
2022/10/18 00:12:38;;;;;;;21.92;7.75;;;;;;;16.27;68.82;100787.72;10384522;28;20560;-66
2022/10/18 00:17:40;;;;;;;21.42;7.95;;;;;;;16.28;68.67;100792.91;10383423;28;20058;-66
2022/10/18 00:22:42;;;;;;;27.85;8.10;;;;;;;16.18;69.21;100782.13;10384452;28;20081;-67
2022/10/18 00:27:43;;;;;;;31.73;10.10;;;;;;;16.10;69.45;100778.34;10385409;28;20057;-67
2022/10/18 00:32:45;;;;;;;18.70;7.97;;;;;;;16.13;69.51;100778.97;10384960;28;20053;-66
2022/10/18 00:37:47;;;;;;;20.08;9.93;;;;;;;16.17;69.37;100763.78;10383149;28;20099;-66
2022/10/18 00:42:49;;;;;;;21.92;8.02;;;;;;;16.19;69.48;100762.72;10384851;28;20053;-66
2022/10/18 00:48:01;;;;;;;19.67;9.40;;;;;;;16.22;69.60;100762.50;10384805;28;20100;-67
2022/10/18 00:53:07;;;;;;;24.83;8.77;;;;;;;16.22;69.64;100749.28;10384043;28;20050;-66
2022/10/18 00:58:12;;;;;;;17.67;8.55;;;;;;;16.14;69.67;100756.91;10381689;28;20093;-66
2022/10/18 01:03:14;;;;;;;23.58;9.38;;;;;;;16.24;69.57;100750.03;10385900;28;20057;-67
2022/10/18 01:08:42;;;;;;;19.35;8.32;;;;;;;16.18;69.50;100734.63;10391888;28;20107;-67
2022/10/18 01:14:12;;;;;;;17.40;6.45;;;;;;;16.18;69.24;100734.63;10391426;28;20068;-67
2022/10/18 01:19:42;;;;;;;20.53;11.57;;;;;;;16.12;69.55;100728.97;10391274;28;20064;-66
2022/10/18 01:24:44;;;;;;;25.23;10.00;;;;;;;16.04;69.81;100728.66;10390900;28;20115;-67
2022/10/18 01:30:06;;;;;;;30.40;9.52;;;;;;;15.91;70.65;100727.81;10390842;28;20536;-66
2022/10/18 01:35:12;;;;;;;25.70;12.02;;;;;;;16.03;70.44;100745.41;10391445;28;20050;-66
2022/10/18 01:40:19;;;;;;;23.00;9.60;;;;;;;16.10;69.87;100765.97;10389892;28;20584;-67
2022/10/18 01:45:23;;;;;;;20.00;9.02;;;;;;;16.09;69.63;100759.03;10389945;28;20147;-66
2022/10/18 01:50:33;;;;;;;22.60;11.20;;;;;;;16.08;70.30;100756.50;10389562;28;20141;-67
2022/10/18 01:55:34;;;;;;;;;;;;;;;15.75;71.32;100762.31;10388840;28;20983;-67
2022/10/18 02:00:51;;;;;;;24.65;12.18;;;;;;;16.02;70.95;100749.00;10390056;28;19952;-67
2022/10/18 02:06:04;;;;;;;15.38;7.57;;;;;;;16.02;70.70;100744.56;10396461;28;20053;-66
2022/10/18 02:11:09;;;;;;;17.33;11.00;;;;;;;16.05;71.14;100749.66;10396176;28;20041;-67
2022/10/18 02:16:18;;;;;;;23.67;11.85;;;;;;;16.17;70.85;100761.13;10396235;28;20103;-67
2022/10/18 02:21:21;;;;;;;31.77;15.27;;;;;;;16.22;70.75;100743.19;10392890;28;21016;-66
2022/10/18 02:26:23;;;;;;;28.58;13.05;;;;;;;16.29;70.68;100741.78;10396026;28;20061;-67
2022/10/18 02:31:45;;;;;;;19.05;10.00;;;;;;;16.19;71.13;100732.84;10395240;28;20052;-67
2022/10/18 02:36:52;;;;;;;16.05;9.85;;;;;;;16.20;70.80;100745.91;10394723;28;20154;-67
2022/10/18 02:41:55;;;;;;;12.60;8.23;;;;;;;16.16;71.12;100752.38;10394697;28;20049;-67
2022/10/18 02:46:57;;;;;;;28.40;10.48;;;;;;;16.27;70.69;100759.53;10395748;28;20094;-66
2022/10/18 02:51:59;;;;;;;284.70;20.23;;;;;;;16.21;70.90;100760.81;10395336;28;20049;-67
2022/10/18 02:57:01;;;;;;;15.10;6.85;;;;;;;15.98;71.45;100753.66;10394343;28;20501;-66
2022/10/18 03:02:03;;;;;;;15.70;8.85;;;;;;;15.97;71.42;100754.59;10393668;28;20057;-67
2022/10/18 03:07:05;;;;;;;119.13;18.02;;;;;;;15.83;72.24;100752.06;10388632;28;20075;-66
2022/10/18 03:12:07;;;;;;;338.40;20.65;;;;;;;15.78;72.21;100748.03;10386099;28;20710;-66
2022/10/18 03:17:09;;;;;;;16.23;6.50;;;;;;;15.74;72.24;100754.47;10387991;28;20049;-68
2022/10/18 03:22:10;;;;;;;18.77;11.77;;;;;;;15.88;72.13;100746.47;10386540;28;20124;-66
2022/10/18 03:27:12;;;;;;;8.65;6.30;;;;;;;15.90;72.15;100737.50;10386679;28;20045;-67
2022/10/18 03:32:14;;;;;;;7.93;6.55;;;;;;;15.86;72.42;100733.38;10387028;28;20110;-66
2022/10/18 03:37:16;;;;;;;38.47;10.68;;;;;;;15.71;72.77;100733.59;10387186;28;20119;-67
2022/10/18 03:42:18;;;;;;;19.00;7.95;;;;;;;15.68;73.23;100733.78;10387145;28;20152;-67
2022/10/18 03:47:19;;;;;;;23.55;10.30;;;;;;;15.69;72.92;100727.59;10385163;28;20088;-67
2022/10/18 03:52:21;;;;;;;46.03;18.27;;;;;;;15.61;73.27;100717.56;10386685;28;20045;-67
2022/10/18 03:57:23;;;;;;;22.42;11.95;;;;;;;15.59;73.59;100726.53;10377430;28;20057;-67
2022/10/18 04:02:25;;;;;;;107.03;9.73;;;;;;;15.62;73.57;100731.56;10385892;28;20062;-66
2022/10/18 04:07:27;;;;;;;115.25;18.55;;;;;;;15.80;73.10;100738.22;10386910;28;20041;-67
2022/10/18 04:12:28;;;;;;;314.17;13.45;;;;;;;15.84;73.27;100734.44;10384224;28;20565;-67
2022/10/18 04:17:31;;;;;;;31.70;15.45;;;;;;;15.86;73.39;100749.22;10385718;28;20421;-67
2022/10/18 04:22:33;;;;;;;45.88;19.60;;;;;;;16.00;72.73;100746.47;10385843;28;20060;-66
2022/10/18 04:27:35;;;;;;;22.75;13.07;;;;;;;16.13;72.56;100743.81;10386393;28;20416;-67
2022/10/18 04:32:37;;;;;;;28.00;13.85;;;;;;;16.23;72.00;100747.50;10368150;28;20508;-66
2022/10/18 04:37:39;;;;;;;24.52;15.00;;;;;;;16.28;72.03;100749.81;10388244;28;20061;-67
2022/10/18 04:42:41;;;;;;;36.95;12.80;;;;;;;16.35;71.77;100757.19;10392993;28;20096;-66
2022/10/18 04:47:43;;;;;;;237.00;12.63;;;;;;;16.30;71.61;100761.13;10393475;28;20076;-67
2022/10/18 04:52:44;;;;;;;1021.95;38.28;;;;;;;16.30;71.69;100756.69;10393740;28;20088;-67
2022/10/18 04:57:46;;;;;;;214.57;14.32;;;;;;;16.28;71.60;100748.03;10391065;28;20068;-67
2022/10/18 05:02:48;;;;;;;95.82;16.30;;;;;;;16.30;71.50;100754.06;10391900;28;20402;-67
2022/10/18 05:07:50;;;;;;;27.67;15.23;;;;;;;16.33;71.26;100751.19;10392513;28;20054;-67
2022/10/18 05:12:52;;;;;;;51.42;17.65;;;;;;;16.36;71.50;100755.41;10392360;28;21360;-67
2022/10/18 05:17:53;;;;;;;40.78;17.70;;;;;;;16.33;71.46;100745.06;10393276;28;20140;-67
2022/10/18 05:22:56;;;;;;;26.60;14.93;;;;;;;16.36;71.16;100739.56;10390582;28;20045;-67
2022/10/18 05:27:58;;;;;;;30.17;15.35;;;;;;;16.35;71.23;100736.06;10391251;28;20107;-67
2022/10/18 05:33:11;;;;;;;48.85;18.13;;;;;;;16.26;71.55;100742.03;10391140;28;20607;-67
2022/10/18 05:38:13;;;;;;;27.63;13.75;;;;;;;16.27;71.63;100746.34;10373542;28;20053;-67
2022/10/18 05:43:16;;;;;;;179.30;25.77;;;;;;;16.30;71.22;100740.84;10391920;28;20053;-67
2022/10/18 05:48:18;;;;;;;19.58;8.57;;;;;;;16.24;71.26;100744.75;10389359;28;20103;-67
2022/10/18 05:53:20;;;;;;;19.35;10.98;;;;;;;16.31;71.13;100750.44;10390471;28;20838;-67
2022/10/18 05:58:40;;;;;;;64.55;15.52;;;;;;;16.41;71.04;100755.91;10390956;28;20064;-66
2022/10/18 06:03:42;;;;;;;617.05;20.38;;;;;;;16.37;71.13;100763.22;10391056;28;20068;-67
2022/10/18 06:08:47;;;;;;;130.95;9.18;;;;;;;16.33;71.27;100767.03;10389018;28;20050;-67
2022/10/18 06:13:50;;;;;;;104.35;11.25;;;;;;;16.38;71.21;100761.44;10389984;28;20333;-67
2022/10/18 06:18:54;;;;;;;40.63;10.23;;;;;;;16.39;71.17;100761.31;10389057;28;20057;-67
2022/10/18 06:23:58;;;;;;;22.77;7.95;;;;;;;16.32;71.40;100768.00;10389802;28;20140;-67
2022/10/18 06:28:59;;;;;;;25.98;12.50;;;;;;;16.36;71.10;100768.63;10390033;28;20054;-67
2022/10/18 06:34:02;;;;;;;28.02;11.68;;;;;;;16.31;71.53;100781.28;10389702;28;20555;-66
2022/10/18 06:39:03;;;;;;;26.92;11.38;;;;;;;16.34;71.28;100786.34;10389111;28;20640;-67
2022/10/18 06:44:12;;;;;;;84.95;17.33;;;;;;;16.39;71.43;100785.06;10388042;28;20056;-67
2022/10/18 06:49:15;;;;;;;109.53;17.52;;;;;;;16.32;71.58;100790.91;10387551;28;20045;-67
2022/10/18 06:54:20;;;;;;;29.00;10.15;;;;;;;16.40;71.54;100799.97;10387892;28;20191;-67
2022/10/18 06:59:22;;;;;;;31.17;13.40;;;;;;;16.51;71.08;100801.91;10389131;28;20057;-67
2022/10/18 07:04:29;;;;;;;21.50;11.35;;;;;;;16.61;70.84;100805.56;10388086;28;20049;-67
2022/10/18 07:09:31;;;;;;;21.75;9.98;;;;;;;16.68;70.75;100817.38;10388050;28;20049;-67
2022/10/18 07:14:33;;;;;;;16.55;9.20;;;;;;;16.63;70.94;100824.81;10387154;28;20579;-67
2022/10/18 07:19:34;;;;;;;18.60;9.02;;;;;;;16.77;70.97;100830.75;10387429;28;20049;-67
2022/10/18 07:24:36;;;;;;;10.43;6.07;;;;;;;16.86;70.67;100826.63;10386592;28;20544;-67
2022/10/18 07:29:39;;;;;;;16.45;9.13;;;;;;;17.12;70.26;100828.22;10387262;28;20045;-67
2022/10/18 07:34:41;;;;;;;14.27;7.20;;;;;;;17.43;69.81;100826.88;10386907;28;20057;-67
2022/10/18 07:39:42;;;;;;;13.20;6.60;;;;;;;17.63;69.41;100832.38;10386963;28;20064;-67
2022/10/18 07:44:44;;;;;;;7.90;4.93;;;;;;;17.56;69.60;100838.25;10387342;28;20045;-67
2022/10/18 07:49:46;;;;;;;10.85;8.18;;;;;;;17.66;69.15;100828.66;10385504;28;20478;-67
2022/10/18 07:54:48;;;;;;;11.93;7.38;;;;;;;17.69;69.43;100823.13;10385689;28;20056;-67
2022/10/18 07:59:55;;;;;;;17.40;7.50;;;;;;;17.71;68.85;100822.06;10386434;28;20096;-67
2022/10/18 08:04:57;;;;;;;17.20;7.70;;;;;;;17.64;69.05;100839.38;10386094;28;20498;-67
2022/10/18 08:09:59;;;;;;;17.88;9.05;;;;;;;17.39;70.02;100865.94;10386442;28;20730;-67
2022/10/18 08:15:01;;;;;;;10.95;7.43;;;;;;;17.38;70.01;100861.59;10384576;28;20045;-67
2022/10/18 08:20:04;;;;;;;15.48;10.45;;;;;;;17.54;70.01;100870.09;10386040;28;20053;-67
2022/10/18 08:25:19;;;;;;;11.48;9.32;;;;;;;17.72;69.80;100867.88;10386358;28;20045;-67
2022/10/18 08:30:22;;;;;;;10.60;6.63;;;;;;;18.03;69.10;100871.72;10385099;28;20406;-67
2022/10/18 08:35:24;;;;;;;11.15;7.63;;;;;;;18.33;68.71;100869.41;10385997;28;20486;-67
2022/10/18 08:40:27;;;;;;;10.57;4.93;;;;;;;18.36;68.52;100864.69;10385527;28;20597;-67
2022/10/18 08:45:33;;;;;;;6.05;4.57;;;;;;;18.50;68.60;100864.47;10385856;28;20045;-67
2022/10/18 08:50:44;;;;;;;7.90;4.20;;;;;;;18.65;67.92;100873.88;10385290;28;20100;-67
2022/10/18 08:56:13;;;;;;;9.52;3.78;;;;;;;18.92;67.59;100876.16;10385624;28;20052;-67
2022/10/18 09:01:24;;;;;;;7.28;2.80;;;;;;;18.96;67.05;100877.59;10385360;28;20076;-67
2022/10/18 09:06:42;;;;;;;6.57;3.30;;;;;;;19.07;66.73;100882.94;10385299;28;20057;-67
2022/10/18 09:12:31;;;;;;;5.82;2.17;;;;;;;19.11;66.15;100873.78;10383306;28;20516;-67
2022/10/18 09:17:44;;;;;;;5.13;2.22;;;;;;;19.19;65.92;100875.81;10385401;28;20057;-67
2022/10/18 09:23:19;;;;;;;3.60;2.25;;;;;;;19.36;65.96;100885.88;10384819;28;20056;-66
2022/10/18 09:28:42;;;;;;;9.25;2.25;;;;;;;19.51;65.00;100889.09;10380282;28;21052;-67
2022/10/18 09:34:01;;;;;;;4.60;2.10;;;;;;;19.39;64.91;100899.75;10392607;28;20796;-67
2022/10/18 09:39:13;;;;;;;4.30;2.40;;;;;;;19.33;65.67;100905.56;10389765;28;20409;-67
2022/10/18 09:44:21;;;;;;;5.90;2.50;;;;;;;19.11;66.39;100907.41;10385968;28;20049;-67
2022/10/18 09:49:28;;;;;;;6.60;2.67;;;;;;;18.99;66.35;100903.03;10387461;28;20060;-67
2022/10/18 09:54:36;;;;;;;3.58;2.35;;;;;;;18.91;66.51;100911.56;10382604;28;20060;-75
2022/10/18 09:59:48;;;;;;;4.45;2.53;;;;;;;18.91;66.62;100903.63;10385366;28;20049;-75
2022/10/18 10:04:53;;;;;;;6.97;2.30;;;;;;;19.06;66.09;100914.84;10390358;28;20054;-75
2022/10/18 10:09:58;;;;;;;6.13;2.90;;;;;;;19.14;65.85;100918.59;10389135;28;20060;-75
2022/10/18 10:15:18;;;;;;;4.10;2.05;;;;;;;19.38;65.37;100921.94;10386336;28;20042;-76
2022/10/18 10:20:21;;;;;;;;;;;;;;;19.22;66.43;100925.94;10387347;28;20957;-75
2022/10/18 10:25:36;;;;;;;4.97;2.25;;;;;;;19.55;65.13;100928.53;10387185;28;19932;-76
2022/10/18 10:30:38;;;;;;;8.07;2.42;;;;;;;19.88;64.38;100928.47;10389235;28;20049;-76
2022/10/18 10:35:40;;;;;;;7.22;2.33;;;;;;;20.31;63.10;100925.72;10382929;28;20655;-76
2022/10/18 10:40:55;;;;;;;3.83;2.08;;;;;;;20.54;62.84;100913.94;10386794;28;20143;-77
2022/10/18 10:45:57;;;;;;;6.50;2.33;;;;;;;20.61;62.58;100920.47;10384588;28;20490;-76
2022/10/18 10:51:09;;;;;;;3.42;1.80;;;;;;;20.42;62.16;100925.63;10385518;28;20053;-76
2022/10/18 10:56:23;;;;;;;3.45;1.40;;;;;;;20.14;61.26;100932.44;10386247;28;20053;-76
2022/10/18 11:01:32;;;;;;;2.78;1.35;;;;;;;20.25;60.32;100929.69;10388148;28;20061;-75
2022/10/18 11:06:49;;;;;;;3.53;1.40;;;;;;;20.55;60.86;100920.97;10385185;28;20042;-75
2022/10/18 11:12:14;;;;;;;3.92;1.17;;;;;;;20.51;60.15;100927.50;10383338;28;20076;-75
2022/10/18 11:17:24;;;;;;;1.65;1.10;;;;;;;20.71;60.56;100925.81;10387601;28;20045;-75
2022/10/18 11:22:33;;;;;;;2.90;1.20;;;;;;;21.00;59.23;100919.69;10384694;28;20490;-75
2022/10/18 11:27:43;;;;;;;2.42;1.20;;;;;;;20.97;59.74;100929.72;10386234;28;20104;-75
2022/10/18 11:33:11;;;;;;;1.70;1.17;;;;;;;20.93;58.12;100926.50;10386358;28;20049;-75
2022/10/18 11:38:22;;;;;;;1.73;1.10;;;;;;;20.98;58.16;100924.28;10384066;28;21361;-75
2022/10/18 11:43:40;;;;;;;3.65;1.40;;;;;;;21.12;57.83;100919.56;10385793;28;20053;-75
2022/10/18 11:49:15;;;;;;;4.10;1.30;;;;;;;21.40;56.69;100910.84;10381222;28;20382;-75
2022/10/18 11:54:26;;;;;;;3.47;1.15;;;;;;;21.32;56.18;100903.53;10384569;28;21279;-75
2022/10/18 11:59:37;;;;;;;6.82;1.20;;;;;;;21.49;56.18;100902.03;10383808;28;20454;-75
2022/10/18 12:04:49;;;;;;;2.10;1.20;;;;;;;21.36;55.77;100904.09;10383507;28;20517;-75
2022/10/18 12:10:17;;;;;;;5.97;1.40;;;;;;;21.36;56.10;100896.97;10383550;28;20199;-75
2022/10/18 12:15:39;;;;;;;2.83;1.40;;;;;;;21.24;56.27;100895.38;10385542;28;20064;-75
2022/10/18 12:20:48;;;;;;;4.03;1.67;;;;;;;20.60;57.50;100899.34;10385401;28;20049;-75
2022/10/18 12:25:54;;;;;;;2.80;1.55;;;;;;;20.58;58.08;100904.78;10383794;28;20049;-75
2022/10/18 12:31:25;;;;;;;6.38;1.60;;;;;;;20.34;57.74;100906.03;10383005;28;20045;-75
2022/10/18 12:37:04;;;;;;;3.33;1.50;;;;;;;20.05;57.50;100898.66;10385428;28;20108;-74
2022/10/18 12:42:24;;;;;;;3.17;1.52;;;;;;;20.09;58.33;100896.63;10382028;28;20053;-74
2022/10/18 12:47:28;;;;;;;4.28;1.70;;;;;;;20.30;58.36;100894.78;10383864;28;20405;-74
2022/10/18 12:52:36;;;;;;;3.72;1.40;;;;;;;20.43;57.52;100905.22;10383678;28;20136;-74
2022/10/18 12:57:53;;;;;;;3.00;1.33;;;;;;;20.37;57.15;100897.78;10384234;28;20053;-74
2022/10/18 13:03:16;;;;;;;5.82;1.52;;;;;;;20.39;56.85;100894.00;10388666;28;20053;-74
2022/10/18 13:08:30;;;;;;;5.18;1.50;;;;;;;20.44;56.42;100890.97;10390715;28;20441;-74
2022/10/18 13:13:54;;;;;;;3.60;1.40;;;;;;;20.45;56.24;100893.50;10390164;28;20171;-74
2022/10/18 13:19:15;;;;;;;4.20;1.48;;;;;;;20.29;57.32;100885.16;10389393;28;20418;-74
2022/10/18 13:24:24;;;;;;;7.20;1.55;;;;;;;20.41;57.42;100891.22;10390730;28;20095;-74
2022/10/18 13:29:32;;;;;;;3.78;1.40;;;;;;;20.32;56.82;100882.22;10390813;28;20552;-74
2022/10/18 13:34:37;;;;;;;3.35;1.50;;;;;;;20.26;56.45;100896.03;10390262;28;20053;-75
2022/10/18 13:39:39;;;;;;;5.63;1.50;;;;;;;20.13;56.93;100898.88;10391000;28;20053;-75
2022/10/18 13:44:43;;;;;;;6.25;1.55;;;;;;;20.15;57.01;100890.78;10385364;28;20061;-74
2022/10/18 13:50:01;;;;;;;3.35;1.70;;;;;;;20.04;56.13;100889.03;10389082;28;20045;-74
2022/10/18 13:55:34;;;;;;;5.72;2.80;;;;;;;20.08;56.47;100901.09;10390696;28;20245;-74
2022/10/18 14:01:03;;;;;;;4.07;1.75;;;;;;;20.20;56.55;100899.19;10388489;28;20060;-75
2022/10/18 14:06:37;;;;;;;4.10;1.85;;;;;;;20.23;56.67;100904.25;10384490;28;20125;-75
2022/10/18 14:11:46;;;;;;;6.72;1.90;;;;;;;20.23;56.60;100898.94;10376893;28;20046;-74
2022/10/18 14:16:55;;;;;;;4.13;2.00;;;;;;;20.09;56.79;100912.56;10386235;28;20045;-74
2022/10/18 14:22:09;;;;;;;3.90;2.08;;;;;;;20.06;56.58;100918.09;10383499;28;20045;-74
2022/10/18 14:27:19;;;;;;;3.35;2.05;;;;;;;19.95;57.36;100915.53;10383207;28;20498;-74
2022/10/18 14:32:30;;;;;;;9.27;2.40;;;;;;;19.78;57.45;100913.38;10386993;28;20100;-75
2022/10/18 14:37:34;;;;;;;7.13;2.28;;;;;;;19.79;57.66;100917.69;10387550;28;20104;-75
2022/10/18 14:42:36;;;;;;;4.97;2.60;;;;;;;19.83;57.37;100911.19;10389376;28;20448;-75
2022/10/18 14:47:38;;;;;;;4.40;2.97;;;;;;;19.88;57.51;100917.00;10387305;28;20068;-74
2022/10/18 14:52:40;;;;;;;9.15;3.10;;;;;;;19.89;57.09;100919.50;10388765;28;20053;-74
2022/10/18 14:57:42;;;;;;;6.30;3.00;;;;;;;19.95;56.95;100920.84;10388329;28;20084;-74
2022/10/18 15:02:44;;;;;;;6.65;3.13;;;;;;;19.75;57.32;100932.19;10388554;28;20096;-75
2022/10/18 15:07:47;;;;;;;5.95;3.10;;;;;;;19.66;57.57;100930.31;10387061;28;20089;-74
2022/10/18 15:12:50;;;;;;;5.95;3.45;;;;;;;19.62;57.56;100939.50;10387643;28;20053;-74
2022/10/18 15:18:23;;;;;;;7.90;3.83;;;;;;;19.60;57.71;100933.47;10387420;28;20056;-74
2022/10/18 15:23:30;;;;;;;6.20;3.30;;;;;;;19.81;57.67;100931.69;10386930;28;20046;-75
2022/10/18 15:28:48;;;;;;;8.57;3.92;;;;;;;19.85;56.77;100925.19;10386554;28;20164;-75
2022/10/18 15:33:51;;;;;;;7.70;4.13;;;;;;;19.77;56.77;100927.59;10387463;28;20490;-74
2022/10/18 15:39:02;;;;;;;6.63;4.30;;;;;;;19.59;56.72;100918.50;10384175;28;20705;-74
2022/10/18 15:44:20;;;;;;;6.93;4.68;;;;;;;19.42;57.26;100920.72;10384773;28;20112;-73
2022/10/18 15:49:22;;;;;;;8.10;4.45;;;;;;;19.23;58.25;100927.63;10386133;28;20049;-73
2022/10/18 15:54:31;;;;;;;11.23;4.57;;;;;;;18.95;59.16;100928.09;10380364;28;20045;-73
2022/10/18 15:59:33;;;;;;;7.30;4.40;;;;;;;18.81;59.46;100928.34;10378377;28;20063;-74
2022/10/18 16:04:35;;;;;;;8.60;4.47;;;;;;;18.58;60.15;100940.72;10384292;28;20053;-74
2022/10/18 16:09:37;;;;;;;8.88;4.45;;;;;;;18.44;60.40;100939.13;10384007;28;20498;-74
2022/10/18 16:14:39;;;;;;;8.27;5.20;;;;;;;18.29;60.94;100940.31;10383001;28;20056;-74
2022/10/18 16:19:43;;;;;;;10.05;5.90;;;;;;;18.09;61.79;100929.50;10382982;28;20054;-74
2022/10/18 16:24:44;;;;;;;10.57;5.45;;;;;;;17.84;62.68;100941.06;10383990;28;20045;-74
2022/10/18 16:29:46;;;;;;;14.85;6.15;;;;;;;17.61;63.28;100944.53;10384300;28;21204;-74
2022/10/18 16:34:48;;;;;;;16.30;5.70;;;;;;;17.37;64.17;100935.72;10387211;28;20049;-73
2022/10/18 16:39:50;;;;;;;10.32;5.40;;;;;;;17.18;64.46;100943.28;10393944;28;20492;-74
2022/10/18 16:44:53;;;;;;;13.38;5.88;;;;;;;17.03;65.23;100954.00;10391542;28;20053;-73
2022/10/18 16:49:55;;;;;;;11.85;5.50;;;;;;;16.85;65.85;100968.47;10393490;28;20064;-73
2022/10/18 16:54:57;;;;;;;10.82;6.00;;;;;;;16.69;66.06;100967.81;10391169;28;20049;-73
2022/10/18 16:59:59;;;;;;;10.07;5.80;;;;;;;16.56;66.28;100974.91;10391920;28;20041;-74
2022/10/18 17:05:01;;;;;;;13.07;6.30;;;;;;;16.48;66.80;100973.75;10386190;28;20058;-74
2022/10/18 17:10:03;;;;;;;15.38;7.80;;;;;;;16.35;67.02;100975.47;10390997;28;20057;-65
2022/10/18 17:15:07;;;;;;;20.85;8.77;;;;;;;16.19;67.66;100975.66;10384601;28;20085;-65
2022/10/18 17:20:19;;;;;;;16.20;9.73;;;;;;;15.99;67.76;100995.44;10380602;28;20046;-65
2022/10/18 17:25:21;;;;;;;19.00;9.02;;;;;;;15.81;68.42;100999.28;10390065;28;20626;-65
2022/10/18 17:30:23;;;;;;;12.25;7.97;;;;;;;15.82;68.60;101010.66;10390612;28;20143;-66
2022/10/18 17:35:24;;;;;;;20.40;10.40;;;;;;;15.75;68.54;101010.22;10388266;28;20053;-65
2022/10/18 17:40:26;;;;;;;27.35;11.57;;;;;;;15.68;68.61;101021.25;10387959;28;20057;-65
2022/10/18 17:45:28;;;;;;;17.25;9.32;;;;;;;15.62;68.75;101016.38;10383724;28;20582;-65
2022/10/18 17:50:30;;;;;;;21.58;11.95;;;;;;;15.50;68.58;101031.19;10388774;28;20055;-65
2022/10/18 17:55:35;;;;;;;21.15;10.77;;;;;;;15.32;69.13;101021.75;10385054;28;20497;-65
2022/10/18 18:00:37;;;;;;;23.30;10.05;;;;;;;15.29;69.37;101019.28;10386940;28;20635;-65
2022/10/18 18:05:38;;;;;;;22.77;10.68;;;;;;;15.26;69.04;101014.22;10384975;28;20060;-65
2022/10/18 18:10:41;;;;;;;23.85;13.07;;;;;;;15.08;69.80;101026.72;10383163;28;20041;-65
2022/10/18 18:15:42;;;;;;;24.73;13.90;;;;;;;14.95;70.38;101025.78;10383257;28;20056;-65
2022/10/18 18:20:51;;;;;;;21.65;10.40;;;;;;;14.92;70.16;101025.13;10384116;28;20938;-65
2022/10/18 18:25:56;;;;;;;22.63;11.02;;;;;;;14.90;70.13;101030.47;10387604;28;20181;-65
2022/10/18 18:30:59;;;;;;;29.92;13.00;;;;;;;14.85;70.23;101034.34;10386524;28;20529;-65
2022/10/18 18:36:03;;;;;;;29.90;13.10;;;;;;;14.82;70.17;101034.53;10387086;28;20057;-65
2022/10/18 18:41:14;;;;;;;19.30;9.73;;;;;;;14.77;70.32;101036.59;10386700;28;20144;-65
2022/10/18 18:46:16;;;;;;;19.65;10.85;;;;;;;14.77;70.11;101033.94;10387004;28;20049;-65
2022/10/18 18:51:20;;;;;;;25.70;12.43;;;;;;;14.74;69.80;101028.84;10385208;28;20050;-65
2022/10/18 18:56:24;;;;;;;52.33;18.33;;;;;;;14.57;70.31;101037.78;10385209;28;20060;-66
2022/10/18 19:01:31;;;;;;;29.73;13.75;;;;;;;14.49;70.15;101038.19;10386367;28;20391;-66
2022/10/18 19:06:42;;;;;;;17.55;11.15;;;;;;;14.48;70.44;101039.13;10387344;28;20127;-65
2022/10/18 19:11:46;;;;;;;35.00;15.48;;;;;;;14.37;70.28;101036.25;10385029;28;20057;-65
2022/10/18 19:16:53;;;;;;;16.90;11.82;;;;;;;14.33;70.42;101033.91;10386994;28;20139;-66
2022/10/18 19:22:00;;;;;;;30.58;16.40;;;;;;;14.26;69.98;101036.03;10381270;28;20053;-66
2022/10/18 19:27:07;;;;;;;30.63;14.13;;;;;;;14.23;70.04;101036.19;10383755;28;20045;-66
2022/10/18 19:32:10;;;;;;;27.65;13.25;;;;;;;14.20;70.12;101033.75;10386071;28;20050;-66
2022/10/18 19:37:14;;;;;;;388.90;23.60;;;;;;;14.06;70.62;101038.09;10385088;28;20217;-66
2022/10/18 19:42:15;;;;;;;137.48;17.75;;;;;;;14.01;70.17;101033.09;10382430;28;20156;-66
2022/10/18 19:47:26;;;;;;;271.17;24.02;;;;;;;13.96;70.22;101037.78;10383647;28;20049;-66
2022/10/18 19:52:28;;;;;;;54.95;17.77;;;;;;;13.87;70.29;101037.44;10376084;28;20099;-66
2022/10/18 19:57:31;;;;;;;35.00;17.75;;;;;;;13.76;70.68;101035.38;10383333;28;20057;-66
2022/10/18 20:02:33;;;;;;;46.72;17.90;;;;;;;13.79;70.51;101043.13;10382715;28;20472;-66
2022/10/18 20:07:35;;;;;;;258.35;26.63;;;;;;;13.75;70.20;101036.34;10383414;28;20106;-66
2022/10/18 20:12:37;;;;;;;39.03;17.15;;;;;;;13.69;70.31;101039.31;10381797;28;20049;-66
2022/10/18 20:17:39;;;;;;;38.22;19.40;;;;;;;13.66;71.00;101042.94;10383832;28;20115;-66
2022/10/18 20:22:41;;;;;;;40.35;20.08;;;;;;;13.64;71.06;101043.94;10382436;28;20059;-66
2022/10/18 20:27:43;;;;;;;48.45;22.92;;;;;;;13.65;70.82;101040.41;10382743;28;20049;-66
2022/10/18 20:32:45;;;;;;;623.42;41.05;;;;;;;13.59;70.82;101048.63;10383618;28;20057;-65
2022/10/18 20:37:47;;;;;;;111.10;24.95;;;;;;;13.44;71.05;101050.31;10383734;28;20107;-66
2022/10/18 20:42:51;;;;;;;197.93;34.97;;;;;;;13.45;71.08;101053.78;10375991;28;20072;-66
2022/10/18 20:47:54;;;;;;;165.15;21.52;;;;;;;13.45;71.37;101053.78;10375196;28;20049;-66
2022/10/18 20:52:56;;;;;;;159.32;23.02;;;;;;;13.49;71.52;101061.44;10375354;28;20509;-66
2022/10/18 20:57:58;;;;;;;192.43;21.85;;;;;;;13.50;71.33;101059.63;10376097;28;20056;-66
2022/10/18 21:03:00;;;;;;;284.17;25.83;;;;;;;13.45;71.50;101054.63;10373800;28;20087;-66
2022/10/18 21:08:02;;;;;;;127.13;21.13;;;;;;;13.51;71.70;101072.72;10380043;28;20041;-66
2022/10/18 21:13:04;;;;;;;140.85;17.08;;;;;;;13.51;71.35;101070.06;10380556;28;20063;-66
2022/10/18 21:18:06;;;;;;;173.18;18.80;;;;;;;13.35;71.59;101065.69;10383107;28;20547;-66
2022/10/18 21:23:08;;;;;;;204.02;19.27;;;;;;;13.37;71.39;101059.41;10388476;28;20417;-66
2022/10/18 21:28:10;;;;;;;122.55;17.25;;;;;;;13.39;70.86;101067.22;10387310;28;20427;-65
2022/10/18 21:33:12;;;;;;;278.70;23.48;;;;;;;13.24;71.39;101068.03;10388811;28;20095;-66
2022/10/18 21:38:13;;;;;;;248.65;21.95;;;;;;;13.35;71.30;101057.81;10388885;28;20521;-66
2022/10/18 21:43:15;;;;;;;289.73;21.75;;;;;;;13.42;70.78;101056.53;10389100;28;20053;-66
2022/10/18 21:48:17;;;;;;;521.63;20.45;;;;;;;13.44;71.08;101063.44;10388010;28;20049;-66
2022/10/18 21:53:20;;;;;;;205.77;19.02;;;;;;;13.51;71.01;101056.94;10386881;28;20976;-66
2022/10/18 21:58:22;;;;;;;297.90;21.83;;;;;;;13.56;70.73;101056.66;10387464;28;20056;-66
2022/10/18 22:03:24;;;;;;;358.95;24.80;;;;;;;13.58;70.59;101052.19;10388047;28;20061;-65
2022/10/18 22:08:26;;;;;;;184.73;16.77;;;;;;;13.59;70.83;101052.13;10388304;28;20049;-66
2022/10/18 22:13:28;;;;;;;370.27;21.25;;;;;;;13.60;70.33;101052.94;10386605;28;20049;-66
2022/10/18 22:18:31;;;;;;;113.45;15.70;;;;;;;13.57;70.35;101042.59;10386214;28;20119;-66
2022/10/18 22:23:35;;;;;;;212.98;21.80;;;;;;;13.57;70.59;101039.97;10386042;28;20053;-66
2022/10/18 22:28:39;;;;;;;149.98;21.10;;;;;;;13.61;70.43;101039.75;10384904;28;20050;-66
2022/10/18 22:33:41;;;;;;;154.05;16.40;;;;;;;13.70;70.30;101039.22;10387520;28;20046;-66
2022/10/18 22:38:43;;;;;;;210.57;18.60;;;;;;;13.69;70.20;101037.53;10387356;28;20508;-66
2022/10/18 22:43:46;;;;;;;174.48;21.42;;;;;;;13.57;70.49;101045.22;10386585;28;21051;-65
2022/10/18 22:48:48;;;;;;;166.43;19.40;;;;;;;13.49;70.83;101037.78;10387313;28;20534;-67
2022/10/18 22:53:50;;;;;;;291.10;25.80;;;;;;;13.58;70.70;101041.66;10386559;28;20107;-67
2022/10/18 22:58:52;;;;;;;180.00;24.88;;;;;;;13.63;70.52;101042.28;10385868;28;20103;-64
2022/10/18 23:03:56;;;;;;;129.20;23.30;;;;;;;13.64;70.52;101038.69;10384112;28;20119;-67
2022/10/18 23:09:00;;;;;;;123.82;21.98;;;;;;;13.48;70.17;101037.84;10385709;28;20559;-66